sensor_id;sensor_type;location;lat;lon;timestamp;pressure;altitude;pressure_sealevel;temperature;humidity
76404;BME280;65232;48.358;2.122;2023-12-14T00:00:07;100434.00;;;8.19;100.00
76404;BME280;65232;48.358;2.122;2023-12-14T00:00:33;100431.31;;;8.19;100.00
76404;BME280;65232;48.358;2.122;2023-12-14T00:00:59;100442.09;;;8.06;100.00
76404;BME280;65232;48.358;2.122;2023-12-14T00:01:24;100430.47;;;8.07;100.00
76404;BME280;65232;48.358;2.122;2023-12-14T00:01:49;100437.00;;;8.03;100.00
76404;BME280;65232;48.358;2.122;2023-12-14T00:02:15;100436.16;;;8.03;100.00
76404;BME280;65232;48.358;2.122;2023-12-14T00:02:40;100435.56;;;7.99;100.00
76404;BME280;65232;48.358;2.122;2023-12-14T00:03:06;100437.00;;;8.03;100.00
76404;BME280;65232;48.358;2.122;2023-12-14T00:03:31;100441.75;;;8.00;100.00
76404;BME280;65232;48.358;2.122;2023-12-14T00:03:56;100442.09;;;8.06;100.00
76404;BME280;65232;48.358;2.122;2023-12-14T00:04:22;100442.25;;;8.16;100.00
76404;BME280;65232;48.358;2.122;2023-12-14T00:04:47;100445.75;;;8.28;100.00
76404;BME280;65232;48.358;2.122;2023-12-14T00:05:13;100445.75;;;8.28;100.00
76404;BME280;65232;48.358;2.122;2023-12-14T00:05:38;100447.56;;;8.27;100.00
76404;BME280;65232;48.358;2.122;2023-12-14T00:06:04;100442.72;;;8.21;100.00
76404;BME280;65232;48.358;2.122;2023-12-14T00:06:29;100439.59;;;8.16;100.00
76404;BME280;65232;48.358;2.122;2023-12-14T00:06:54;100450.38;;;8.14;100.00
76404;BME280;65232;48.358;2.122;2023-12-14T00:07:20;100450.47;;;8.13;100.00
76404;BME280;65232;48.358;2.122;2023-12-14T00:07:45;100445.03;;;8.14;100.00
76404;BME280;65232;48.358;2.122;2023-12-14T00:08:11;100451.69;;;8.20;100.00
76404;BME280;65232;48.358;2.122;2023-12-14T00:08:36;100443.22;;;8.15;100.00
76404;BME280;65232;48.358;2.122;2023-12-14T00:09:02;100447.81;;;8.13;100.00
76404;BME280;65232;48.358;2.122;2023-12-14T00:09:27;100453.63;;;8.18;100.00
76404;BME280;65232;48.358;2.122;2023-12-14T00:09:52;100451.22;;;8.15;100.00
76404;BME280;65232;48.358;2.122;2023-12-14T00:10:18;100443.56;;;8.22;100.00
76404;BME280;65232;48.358;2.122;2023-12-14T00:10:43;100450.59;;;8.23;100.00
76404;BME280;65232;48.358;2.122;2023-12-14T00:11:10;100453.63;;;8.18;100.00
76404;BME280;65232;48.358;2.122;2023-12-14T00:11:39;100452.28;;;8.24;100.00
76404;BME280;65232;48.358;2.122;2023-12-14T00:12:05;100448.41;;;8.17;100.00
76404;BME280;65232;48.358;2.122;2023-12-14T00:12:30;100448.78;;;8.12;100.00
76404;BME280;65232;48.358;2.122;2023-12-14T00:12:55;100451.34;;;8.13;100.00
76404;BME280;65232;48.358;2.122;2023-12-14T00:13:21;100446.34;;;8.09;100.00
76404;BME280;65232;48.358;2.122;2023-12-14T00:13:46;100453.84;;;8.04;100.00
76404;BME280;65232;48.358;2.122;2023-12-14T00:14:12;100457.97;;;8.08;100.00
76404;BME280;65232;48.358;2.122;2023-12-14T00:14:37;100452.41;;;8.11;100.00
76404;BME280;65232;48.358;2.122;2023-12-14T00:15:03;100450.09;;;8.06;100.00
76404;BME280;65232;48.358;2.122;2023-12-14T00:15:28;100454.56;;;8.06;100.00
76404;BME280;65232;48.358;2.122;2023-12-14T00:15:53;100454.00;;;8.13;100.00
76404;BME280;65232;48.358;2.122;2023-12-14T00:16:19;100461.59;;;8.18;100.00
76404;BME280;65232;48.358;2.122;2023-12-14T00:16:44;100450.38;;;8.14;100.00
76404;BME280;65232;48.358;2.122;2023-12-14T00:17:09;100453.88;;;8.15;100.00
76404;BME280;65232;48.358;2.122;2023-12-14T00:17:35;100457.97;;;8.19;100.00
76404;BME280;65232;48.358;2.122;2023-12-14T00:18:00;100458.25;;;8.16;100.00
76404;BME280;65232;48.358;2.122;2023-12-14T00:18:26;100456.53;;;8.26;100.00
76404;BME280;65232;48.358;2.122;2023-12-14T00:18:52;100465.41;;;8.38;100.00
76404;BME280;65232;48.358;2.122;2023-12-14T00:19:17;100458.75;;;8.32;100.00
76404;BME280;65232;48.358;2.122;2023-12-14T00:19:42;100460.31;;;8.35;100.00
76404;BME280;65232;48.358;2.122;2023-12-14T00:20:08;100459.59;;;8.33;100.00
76404;BME280;65232;48.358;2.122;2023-12-14T00:20:34;100457.88;;;8.32;100.00
76404;BME280;65232;48.358;2.122;2023-12-14T00:20:59;100462.50;;;8.41;100.00
76404;BME280;65232;48.358;2.122;2023-12-14T00:21:25;100462.00;;;8.47;100.00
76404;BME280;65232;48.358;2.122;2023-12-14T00:21:50;100461.53;;;8.53;100.00
76404;BME280;65232;48.358;2.122;2023-12-14T00:22:15;100460.56;;;8.54;100.00
76404;BME280;65232;48.358;2.122;2023-12-14T00:22:41;100458.50;;;8.58;100.00
76404;BME280;65232;48.358;2.122;2023-12-14T00:23:06;100457.03;;;8.54;100.00
76404;BME280;65232;48.358;2.122;2023-12-14T00:23:33;100460.19;;;8.47;100.00
76404;BME280;65232;48.358;2.122;2023-12-14T00:23:59;100463.72;;;8.48;100.00
76404;BME280;65232;48.358;2.122;2023-12-14T00:24:24;100470.41;;;8.42;100.00
76404;BME280;65232;48.358;2.122;2023-12-14T00:24:50;100467.13;;;8.39;100.00
76404;BME280;65232;48.358;2.122;2023-12-14T00:25:15;100466.66;;;8.45;100.00
76404;BME280;65232;48.358;2.122;2023-12-14T00:25:40;100464.09;;;8.43;100.00
76404;BME280;65232;48.358;2.122;2023-12-14T00:26:06;100473.28;;;8.51;100.00
76404;BME280;65232;48.358;2.122;2023-12-14T00:26:31;100463.47;;;8.51;100.00
76404;BME280;65232;48.358;2.122;2023-12-14T00:26:57;100471.72;;;8.48;100.00
76404;BME280;65232;48.358;2.122;2023-12-14T00:27:22;100476.91;;;8.49;100.00
76404;BME280;65232;48.358;2.122;2023-12-14T00:27:47;100478.63;;;8.51;100.00
76404;BME280;65232;48.358;2.122;2023-12-14T00:28:13;100476.91;;;8.49;100.00
76404;BME280;65232;48.358;2.122;2023-12-14T00:28:38;100480.44;;;8.50;100.00
76404;BME280;65232;48.358;2.122;2023-12-14T00:29:04;100478.25;;;8.55;100.00
76404;BME280;65232;48.358;2.122;2023-12-14T00:29:29;100481.53;;;8.59;100.00
76404;BME280;65232;48.358;2.122;2023-12-14T00:29:54;100477.28;;;8.56;100.00
76404;BME280;65232;48.358;2.122;2023-12-14T00:30:20;100482.25;;;8.49;100.00
76404;BME280;65232;48.358;2.122;2023-12-14T00:30:45;100480.94;;;8.44;100.00
76404;BME280;65232;48.358;2.122;2023-12-14T00:31:10;100482.88;;;8.42;100.00
76404;BME280;65232;48.358;2.122;2023-12-14T00:31:36;100485.88;;;8.48;100.00
76404;BME280;65232;48.358;2.122;2023-12-14T00:32:01;100487.97;;;8.56;100.00
76404;BME280;65232;48.358;2.122;2023-12-14T00:32:27;100486.63;;;8.51;100.00
76404;BME280;65232;48.358;2.122;2023-12-14T00:32:52;100485.41;;;8.55;100.00
76404;BME280;65232;48.358;2.122;2023-12-14T00:33:17;100497.28;;;8.62;100.00
76404;BME280;65232;48.358;2.122;2023-12-14T00:33:43;100493.31;;;8.56;100.00
76404;BME280;65232;48.358;2.122;2023-12-14T00:34:09;100490.03;;;8.53;100.00
76404;BME280;65232;48.358;2.122;2023-12-14T00:34:35;100493.88;;;8.48;100.00
76404;BME280;65232;48.358;2.122;2023-12-14T00:35:00;100497.28;;;8.51;100.00
76404;BME280;65232;48.358;2.122;2023-12-14T00:35:26;100494.16;;;8.45;100.00
76404;BME280;65232;48.358;2.122;2023-12-14T00:35:51;100497.78;;;8.44;100.00
76404;BME280;65232;48.358;2.122;2023-12-14T00:36:20;100496.31;;;8.40;100.00
76404;BME280;65232;48.358;2.122;2023-12-14T00:36:45;100493.78;;;8.39;100.00
76404;BME280;65232;48.358;2.122;2023-12-14T00:37:10;100501.78;;;8.39;100.00
76404;BME280;65232;48.358;2.122;2023-12-14T00:37:36;100496.94;;;8.44;100.00
76404;BME280;65232;48.358;2.122;2023-12-14T00:38:01;100498.13;;;8.51;100.00
76404;BME280;65232;48.358;2.122;2023-12-14T00:38:26;100494.28;;;8.44;100.00
76404;BME280;65232;48.358;2.122;2023-12-14T00:38:52;100498.13;;;8.40;100.00
76404;BME280;65232;48.358;2.122;2023-12-14T00:39:17;100498.25;;;8.38;100.00
76404;BME280;65232;48.358;2.122;2023-12-14T00:39:43;100497.63;;;8.46;100.00
76404;BME280;65232;48.358;2.122;2023-12-14T00:40:08;100499.22;;;8.48;100.00
76404;BME280;65232;48.358;2.122;2023-12-14T00:40:34;100505.41;;;8.49;100.00
76404;BME280;65232;48.358;2.122;2023-12-14T00:40:59;100503.13;;;8.44;100.00
76404;BME280;65232;48.358;2.122;2023-12-14T00:41:24;100499.84;;;8.41;100.00
76404;BME280;65232;48.358;2.122;2023-12-14T00:41:50;100501.66;;;8.40;100.00
76404;BME280;65232;48.358;2.122;2023-12-14T00:42:15;100500.66;;;8.30;100.00
76404;BME280;65232;48.358;2.122;2023-12-14T00:42:40;100503.06;;;8.22;100.00
76404;BME280;65232;48.358;2.122;2023-12-14T00:43:06;100505.00;;;8.20;100.00
76404;BME280;65232;48.358;2.122;2023-12-14T00:43:31;100505.94;;;8.19;100.00
76404;BME280;65232;48.358;2.122;2023-12-14T00:43:57;100501.84;;;8.15;100.00
76404;BME280;65232;48.358;2.122;2023-12-14T00:44:22;100510.81;;;8.14;100.00
76404;BME280;65232;48.358;2.122;2023-12-14T00:44:47;100517.97;;;8.13;100.00
76404;BME280;65232;48.358;2.122;2023-12-14T00:45:13;100507.88;;;8.17;100.00
76404;BME280;65232;48.358;2.122;2023-12-14T00:45:38;100510.94;;;8.24;100.00
76404;BME280;65232;48.358;2.122;2023-12-14T00:46:05;100506.50;;;8.35;100.00
76404;BME280;65232;48.358;2.122;2023-12-14T00:46:31;100510.75;;;8.38;100.00
76404;BME280;65232;48.358;2.122;2023-12-14T00:46:56;100506.38;;;8.37;100.00
76404;BME280;65232;48.358;2.122;2023-12-14T00:47:23;100504.06;;;8.32;100.00
76404;BME280;65232;48.358;2.122;2023-12-14T00:47:49;100505.66;;;8.35;100.00
76404;BME280;65232;48.358;2.122;2023-12-14T00:48:14;100512.44;;;8.39;100.00
76404;BME280;65232;48.358;2.122;2023-12-14T00:48:39;100504.44;;;8.39;100.00
76404;BME280;65232;48.358;2.122;2023-12-14T00:49:05;100509.66;;;8.40;100.00
76404;BME280;65232;48.358;2.122;2023-12-14T00:49:30;100518.97;;;8.35;100.00
76404;BME280;65232;48.358;2.122;2023-12-14T00:49:55;100521.00;;;8.31;100.00
76404;BME280;65232;48.358;2.122;2023-12-14T00:50:21;100511.31;;;8.30;100.00
76404;BME280;65232;48.358;2.122;2023-12-14T00:50:46;100511.59;;;8.38;100.00
76404;BME280;65232;48.358;2.122;2023-12-14T00:51:12;100517.38;;;8.32;100.00
76404;BME280;65232;48.358;2.122;2023-12-14T00:51:37;100511.44;;;8.29;100.00
76404;BME280;65232;48.358;2.122;2023-12-14T00:52:03;100517.97;;;8.25;100.00
76404;BME280;65232;48.358;2.122;2023-12-14T00:52:29;100517.13;;;8.24;100.00
76404;BME280;65232;48.358;2.122;2023-12-14T00:52:55;100514.34;;;8.26;100.00
76404;BME280;65232;48.358;2.122;2023-12-14T00:53:20;100518.81;;;8.25;100.00
76404;BME280;65232;48.358;2.122;2023-12-14T00:53:45;100522.09;;;8.29;100.00
76404;BME280;65232;48.358;2.122;2023-12-14T00:54:11;100524.88;;;8.27;100.00
76404;BME280;65232;48.358;2.122;2023-12-14T00:54:36;100522.78;;;8.20;100.00
76404;BME280;65232;48.358;2.122;2023-12-14T00:55:02;100526.19;;;8.22;100.00
76404;BME280;65232;48.358;2.122;2023-12-14T00:55:27;100523.53;;;8.22;100.00
76404;BME280;65232;48.358;2.122;2023-12-14T00:55:53;100525.97;;;8.25;100.00
76404;BME280;65232;48.358;2.122;2023-12-14T00:56:18;100520.63;;;8.25;100.00
76404;BME280;65232;48.358;2.122;2023-12-14T00:56:43;100521.47;;;8.25;100.00
76404;BME280;65232;48.358;2.122;2023-12-14T00:57:09;100524.16;;;8.25;100.00
76404;BME280;65232;48.358;2.122;2023-12-14T00:57:34;100522.09;;;8.29;100.00
76404;BME280;65232;48.358;2.122;2023-12-14T00:58:00;100523.19;;;8.26;100.00
76404;BME280;65232;48.358;2.122;2023-12-14T00:58:25;100521.25;;;8.28;100.00
76404;BME280;65232;48.358;2.122;2023-12-14T00:58:50;100522.59;;;8.34;100.00
76404;BME280;65232;48.358;2.122;2023-12-14T00:59:16;100522.50;;;8.35;100.00
76404;BME280;65232;48.358;2.122;2023-12-14T00:59:41;100525.88;;;8.48;100.00
76404;BME280;65232;48.358;2.122;2023-12-14T01:00:07;100532.56;;;8.43;100.00
76404;BME280;65232;48.358;2.122;2023-12-14T01:00:35;100520.19;;;8.53;100.00
76404;BME280;65232;48.358;2.122;2023-12-14T01:01:00;100529.41;;;8.49;100.00
76404;BME280;65232;48.358;2.122;2023-12-14T01:01:26;100520.09;;;8.43;100.00
76404;BME280;65232;48.358;2.122;2023-12-14T01:01:51;100529.16;;;8.41;100.00
76404;BME280;65232;48.358;2.122;2023-12-14T01:02:17;100524.19;;;8.36;100.00
76404;BME280;65232;48.358;2.122;2023-12-14T01:02:42;100528.16;;;8.31;100.00
76404;BME280;65232;48.358;2.122;2023-12-14T01:03:07;100527.56;;;8.27;100.00
76404;BME280;65232;48.358;2.122;2023-12-14T01:03:33;100525.97;;;8.25;100.00
76404;BME280;65232;48.358;2.122;2023-12-14T01:03:58;100527.56;;;8.27;100.00
76404;BME280;65232;48.358;2.122;2023-12-14T01:04:24;100537.72;;;8.22;100.00
76404;BME280;65232;48.358;2.122;2023-12-14T01:04:50;100537.25;;;8.28;100.00
76404;BME280;65232;48.358;2.122;2023-12-14T01:05:15;100538.38;;;8.37;100.00
76404;BME280;65232;48.358;2.122;2023-12-14T01:05:40;100530.94;;;8.29;100.00
76404;BME280;65232;48.358;2.122;2023-12-14T01:06:06;100537.47;;;8.25;100.00
76404;BME280;65232;48.358;2.122;2023-12-14T01:06:32;100540.03;;;8.27;100.00
76404;BME280;65232;48.358;2.122;2023-12-14T01:06:57;100533.13;;;8.24;100.00
76404;BME280;65232;48.358;2.122;2023-12-14T01:07:23;100545.25;;;8.28;100.00
76404;BME280;65232;48.358;2.122;2023-12-14T01:07:48;100534.06;;;8.23;100.00
76404;BME280;65232;48.358;2.122;2023-12-14T01:08:13;100537.09;;;8.19;100.00
76404;BME280;65232;48.358;2.122;2023-12-14T01:08:40;100546.31;;;8.14;100.00
76404;BME280;65232;48.358;2.122;2023-12-14T01:09:05;100545.47;;;8.14;100.00
76404;BME280;65232;48.358;2.122;2023-12-14T01:09:30;100545.81;;;8.09;100.00
76404;BME280;65232;48.358;2.122;2023-12-14T01:09:56;100542.81;;;8.25;100.00
76404;BME280;65232;48.358;2.122;2023-12-14T01:10:21;100540.19;;;8.36;100.00
76404;BME280;65232;48.358;2.122;2023-12-14T01:10:47;100542.50;;;8.41;100.00
76404;BME280;65232;48.358;2.122;2023-12-14T01:11:12;100540.81;;;8.40;100.00
76404;BME280;65232;48.358;2.122;2023-12-14T01:11:38;100538.88;;;8.42;100.00
76404;BME280;65232;48.358;2.122;2023-12-14T01:12:03;100539.09;;;8.39;100.00
76404;BME280;65232;48.358;2.122;2023-12-14T01:12:29;100553.41;;;8.49;100.00
76404;BME280;65232;48.358;2.122;2023-12-14T01:12:54;100549.88;;;8.48;100.00
76404;BME280;65232;48.358;2.122;2023-12-14T01:13:20;100540.69;;;8.41;100.00
76404;BME280;65232;48.358;2.122;2023-12-14T01:13:45;100548.88;;;8.27;100.00
76404;BME280;65232;48.358;2.122;2023-12-14T01:14:10;100551.88;;;8.23;100.00
76404;BME280;65232;48.358;2.122;2023-12-14T01:14:36;100548.88;;;8.16;100.00
76404;BME280;65232;48.358;2.122;2023-12-14T01:15:01;100551.66;;;8.14;100.00
76404;BME280;65232;48.358;2.122;2023-12-14T01:15:27;100551.66;;;8.14;100.00
76404;BME280;65232;48.358;2.122;2023-12-14T01:15:53;100552.84;;;8.10;100.00
76404;BME280;65232;48.358;2.122;2023-12-14T01:16:18;100554.66;;;8.10;100.00
76404;BME280;65232;48.358;2.122;2023-12-14T01:16:43;100550.41;;;8.07;100.00
76404;BME280;65232;48.358;2.122;2023-12-14T01:17:09;100551.03;;;8.11;100.00
76404;BME280;65232;48.358;2.122;2023-12-14T01:17:34;100552.22;;;8.07;100.00
76404;BME280;65232;48.358;2.122;2023-12-14T01:18:02;100546.38;;;8.02;100.00
76404;BME280;65232;48.358;2.122;2023-12-14T01:18:27;100549.66;;;8.05;100.00
76404;BME280;65232;48.358;2.122;2023-12-14T01:18:53;100554.63;;;7.99;100.00
76404;BME280;65232;48.358;2.122;2023-12-14T01:19:18;100556.19;;;8.01;100.00
76404;BME280;65232;48.358;2.122;2023-12-14T01:19:44;100553.53;;;8.01;100.00
76404;BME280;65232;48.358;2.122;2023-12-14T01:20:09;100558.50;;;8.06;100.00
76404;BME280;65232;48.358;2.122;2023-12-14T01:20:35;100560.50;;;8.15;100.00
76404;BME280;65232;48.358;2.122;2023-12-14T01:21:01;100559.88;;;8.11;100.00
76404;BME280;65232;48.358;2.122;2023-12-14T01:21:26;100559.25;;;8.08;100.00
76404;BME280;65232;48.358;2.122;2023-12-14T01:21:52;100561.06;;;8.07;100.00
76404;BME280;65232;48.358;2.122;2023-12-14T01:22:17;100555.63;;;8.09;100.00
76404;BME280;65232;48.358;2.122;2023-12-14T01:22:43;100555.50;;;8.10;100.00
76404;BME280;65232;48.358;2.122;2023-12-14T01:23:08;100562.75;;;8.08;100.00
76404;BME280;65232;48.358;2.122;2023-12-14T01:23:34;100558.72;;;8.03;100.00
76404;BME280;65232;48.358;2.122;2023-12-14T01:24:00;100560.44;;;8.04;100.00
76404;BME280;65232;48.358;2.122;2023-12-14T01:24:28;100558.28;;;8.09;100.00
76404;BME280;65232;48.358;2.122;2023-12-14T01:24:53;100561.91;;;8.08;100.00
76404;BME280;65232;48.358;2.122;2023-12-14T01:25:19;100555.00;;;8.05;100.00
76404;BME280;65232;48.358;2.122;2023-12-14T01:25:44;100565.31;;;8.10;100.00
76404;BME280;65232;48.358;2.122;2023-12-14T01:26:09;100560.84;;;8.10;100.00
76404;BME280;65232;48.358;2.122;2023-12-14T01:26:35;100562.53;;;8.11;100.00
76404;BME280;65232;48.358;2.122;2023-12-14T01:27:00;100562.13;;;8.05;100.00
76404;BME280;65232;48.358;2.122;2023-12-14T01:27:26;100567.00;;;8.00;100.00
76404;BME280;65232;48.358;2.122;2023-12-14T01:27:51;100572.06;;;8.03;100.00
76404;BME280;65232;48.358;2.122;2023-12-14T01:28:16;100565.88;;;8.02;100.00
76404;BME280;65232;48.358;2.122;2023-12-14T01:28:42;100569.28;;;8.04;100.00
76404;BME280;65232;48.358;2.122;2023-12-14T01:29:07;100573.75;;;8.04;100.00
76404;BME280;65232;48.358;2.122;2023-12-14T01:29:33;100561.41;;;8.03;100.00
76404;BME280;65232;48.358;2.122;2023-12-14T01:29:58;100574.13;;;7.99;100.00
76404;BME280;65232;48.358;2.122;2023-12-14T01:30:23;100569.75;;;7.98;100.00
76404;BME280;65232;48.358;2.122;2023-12-14T01:30:49;100572.31;;;8.00;100.00
76404;BME280;65232;48.358;2.122;2023-12-14T01:31:14;100574.50;;;8.06;100.00
76404;BME280;65232;48.358;2.122;2023-12-14T01:31:39;100573.66;;;8.05;100.00
76404;BME280;65232;48.358;2.122;2023-12-14T01:32:05;100571.94;;;8.04;100.00
76404;BME280;65232;48.358;2.122;2023-12-14T01:32:30;100572.56;;;8.08;100.00
76404;BME280;65232;48.358;2.122;2023-12-14T01:32:56;100569.44;;;8.14;100.00
76404;BME280;65232;48.358;2.122;2023-12-14T01:33:21;100583.13;;;8.09;100.00
76404;BME280;65232;48.358;2.122;2023-12-14T01:33:46;100579.19;;;8.02;100.00
76404;BME280;65232;48.358;2.122;2023-12-14T01:34:12;100582.00;;;8.01;100.00
76404;BME280;65232;48.358;2.122;2023-12-14T01:34:37;100582.22;;;7.98;100.00
76404;BME280;65232;48.358;2.122;2023-12-14T01:35:03;100575.31;;;7.95;100.00
76404;BME280;65232;48.358;2.122;2023-12-14T01:35:29;100588.97;;;7.91;100.00
76404;BME280;65232;48.358;2.122;2023-12-14T01:35:55;100585.56;;;7.89;100.00
76404;BME280;65232;48.358;2.122;2023-12-14T01:36:21;100575.88;;;7.88;100.00
76404;BME280;65232;48.358;2.122;2023-12-14T01:36:47;100587.69;;;7.96;100.00
76404;BME280;65232;48.358;2.122;2023-12-14T01:37:12;100584.06;;;7.97;100.00
76404;BME280;65232;48.358;2.122;2023-12-14T01:37:37;100572.00;;;8.16;100.00
76404;BME280;65232;48.358;2.122;2023-12-14T01:38:03;100581.81;;;8.15;100.00
76404;BME280;65232;48.358;2.122;2023-12-14T01:38:28;100579.59;;;8.09;100.00
76404;BME280;65232;48.358;2.122;2023-12-14T01:38:53;100585.88;;;8.08;100.00
76404;BME280;65232;48.358;2.122;2023-12-14T01:39:19;100585.56;;;8.12;100.00
76404;BME280;65232;48.358;2.122;2023-12-14T01:39:44;100588.44;;;8.09;100.00
76404;BME280;65232;48.358;2.122;2023-12-14T01:40:10;100587.81;;;8.06;100.00
76404;BME280;65232;48.358;2.122;2023-12-14T01:40:35;100597.50;;;8.07;100.00
76404;BME280;65232;48.358;2.122;2023-12-14T01:41:00;100591.22;;;8.08;100.00
76404;BME280;65232;48.358;2.122;2023-12-14T01:41:26;100592.59;;;8.13;100.00
76404;BME280;65232;48.358;2.122;2023-12-14T01:41:51;100590.59;;;8.04;100.00
76404;BME280;65232;48.358;2.122;2023-12-14T01:42:17;100594.75;;;8.08;100.00
76404;BME280;65232;48.358;2.122;2023-12-14T01:42:42;100602.34;;;8.02;100.00
76404;BME280;65232;48.358;2.122;2023-12-14T01:43:10;100602.22;;;8.03;100.00
76404;BME280;65232;48.358;2.122;2023-12-14T01:43:36;100603.34;;;8.12;100.00
76404;BME280;65232;48.358;2.122;2023-12-14T01:44:01;100598.66;;;8.16;100.00
76404;BME280;65232;48.358;2.122;2023-12-14T01:44:26;100596.44;;;8.09;100.00
76404;BME280;65232;48.358;2.122;2023-12-14T01:44:52;100606.13;;;8.10;100.00
76404;BME280;65232;48.358;2.122;2023-12-14T01:45:17;100600.81;;;8.10;100.00
76404;BME280;65232;48.358;2.122;2023-12-14T01:45:43;100601.16;;;8.17;100.00
76404;BME280;65232;48.358;2.122;2023-12-14T01:46:09;100606.75;;;8.14;100.00
76404;BME280;65232;48.358;2.122;2023-12-14T01:46:34;100612.22;;;8.12;100.00
76404;BME280;65232;48.358;2.122;2023-12-14T01:46:59;100606.06;;;8.23;100.00
76404;BME280;65232;48.358;2.122;2023-12-14T01:47:25;100607.41;;;8.29;100.00
76404;BME280;65232;48.358;2.122;2023-12-14T01:47:50;100604.22;;;8.24;100.00
76404;BME280;65232;48.358;2.122;2023-12-14T01:48:15;100609.16;;;8.17;100.00
76404;BME280;65232;48.358;2.122;2023-12-14T01:48:41;100613.53;;;8.18;100.00
76404;BME280;65232;48.358;2.122;2023-12-14T01:49:06;100611.97;;;8.16;100.00
76404;BME280;65232;48.358;2.122;2023-12-14T01:49:31;100614.13;;;8.10;100.00
76404;BME280;65232;48.358;2.122;2023-12-14T01:49:57;100613.41;;;8.08;100.00
76404;BME280;65232;48.358;2.122;2023-12-14T01:50:22;100608.06;;;8.08;100.00
76404;BME280;65232;48.358;2.122;2023-12-14T01:50:48;100615.66;;;8.02;100.00
76404;BME280;65232;48.358;2.122;2023-12-14T01:51:13;100617.34;;;8.03;100.00
76404;BME280;65232;48.358;2.122;2023-12-14T01:51:38;100619.78;;;8.06;100.00
76404;BME280;65232;48.358;2.122;2023-12-14T01:52:04;100619.16;;;8.02;100.00
76404;BME280;65232;48.358;2.122;2023-12-14T01:52:30;100622.09;;;7.99;100.00
76404;BME280;65232;48.358;2.122;2023-12-14T01:52:55;100620.97;;;8.02;100.00
76404;BME280;65232;48.358;2.122;2023-12-14T01:53:21;100611.31;;;8.01;100.00
76404;BME280;65232;48.358;2.122;2023-12-14T01:53:47;100619.16;;;8.02;100.00
76404;BME280;65232;48.358;2.122;2023-12-14T01:54:12;100625.34;;;8.03;100.00
76404;BME280;65232;48.358;2.122;2023-12-14T01:54:37;100619.91;;;8.04;100.00
76404;BME280;65232;48.358;2.122;2023-12-14T01:55:03;100624.66;;;8.01;100.00
76404;BME280;65232;48.358;2.122;2023-12-14T01:55:28;100626.56;;;7.99;100.00
76404;BME280;65232;48.358;2.122;2023-12-14T01:55:54;100624.75;;;7.99;100.00
76404;BME280;65232;48.358;2.122;2023-12-14T01:56:19;100631.78;;;8.00;100.00
76404;BME280;65232;48.358;2.122;2023-12-14T01:56:45;100622.56;;;8.04;100.00
76404;BME280;65232;48.358;2.122;2023-12-14T01:57:11;100634.09;;;8.05;100.00
76404;BME280;65232;48.358;2.122;2023-12-14T01:57:36;100628.31;;;8.11;100.00
76404;BME280;65232;48.358;2.122;2023-12-14T01:58:02;100624.06;;;8.08;100.00
76404;BME280;65232;48.358;2.122;2023-12-14T01:58:27;100625.75;;;8.09;100.00
76404;BME280;65232;48.358;2.122;2023-12-14T01:58:53;100631.09;;;8.09;100.00
76404;BME280;65232;48.358;2.122;2023-12-14T01:59:18;100630.34;;;8.07;100.00
76404;BME280;65232;48.358;2.122;2023-12-14T01:59:43;100633.41;;;8.14;100.00
76404;BME280;65232;48.358;2.122;2023-12-14T02:00:22;100636.31;;;8.11;100.00
76404;BME280;65232;48.358;2.122;2023-12-14T02:00:58;100633.22;;;8.04;100.00
76404;BME280;65232;48.358;2.122;2023-12-14T02:01:30;100637.72;;;8.04;100.00
76404;BME280;65232;48.358;2.122;2023-12-14T02:02:00;100630.09;;;7.99;100.00
76404;BME280;65232;48.358;2.122;2023-12-14T02:02:26;100638.19;;;7.98;100.00
76404;BME280;65232;48.358;2.122;2023-12-14T02:02:51;100630.56;;;8.04;100.00
76404;BME280;65232;48.358;2.122;2023-12-14T02:03:17;100637.38;;;8.08;100.00
76404;BME280;65232;48.358;2.122;2023-12-14T02:03:46;100636.97;;;8.26;100.00
76404;BME280;65232;48.358;2.122;2023-12-14T02:04:13;100642.19;;;8.27;100.00
76404;BME280;65232;48.358;2.122;2023-12-14T02:04:38;100643.78;;;8.30;100.00
76404;BME280;65232;48.358;2.122;2023-12-14T02:05:04;100642.41;;;8.24;100.00
76404;BME280;65232;48.358;2.122;2023-12-14T02:05:29;100650.69;;;8.32;100.00
76404;BME280;65232;48.358;2.122;2023-12-14T02:05:55;100646.66;;;8.27;100.00
76404;BME280;65232;48.358;2.122;2023-12-14T02:06:20;100647.09;;;8.21;100.00
76404;BME280;65232;48.358;2.122;2023-12-14T02:06:46;100652.66;;;8.18;100.00
76404;BME280;65232;48.358;2.122;2023-12-14T02:07:12;100646.22;;;8.09;100.00
76404;BME280;65232;48.358;2.122;2023-12-14T02:07:37;100651.78;;;8.06;100.00
76404;BME280;65232;48.358;2.122;2023-12-14T02:08:02;100649.00;;;8.07;100.00
76404;BME280;65232;48.358;2.122;2023-12-14T02:08:28;100647.06;;;8.09;100.00
76404;BME280;65232;48.358;2.122;2023-12-14T02:08:54;100655.22;;;8.19;100.00
76404;BME280;65232;48.358;2.122;2023-12-14T02:09:19;100652.56;;;8.19;100.00
76404;BME280;65232;48.358;2.122;2023-12-14T02:09:45;100659.31;;;8.12;100.00
76404;BME280;65232;48.358;2.122;2023-12-14T02:10:10;100655.09;;;8.21;100.00
76404;BME280;65232;48.358;2.122;2023-12-14T02:10:35;100654.03;;;8.23;100.00
76404;BME280;65232;48.358;2.122;2023-12-14T02:11:01;100654.88;;;8.24;100.00
76404;BME280;65232;48.358;2.122;2023-12-14T02:11:26;100650.84;;;8.18;100.00
76404;BME280;65232;48.358;2.122;2023-12-14T02:11:52;100656.81;;;8.22;100.00
76404;BME280;65232;48.358;2.122;2023-12-14T02:12:17;100651.44;;;8.34;100.00
76404;BME280;65232;48.358;2.122;2023-12-14T02:12:42;100650.91;;;8.29;100.00
76404;BME280;65232;48.358;2.122;2023-12-14T02:13:08;100647.00;;;8.22;100.00
76404;BME280;65232;48.358;2.122;2023-12-14T02:13:34;100657.31;;;8.27;100.00
76404;BME280;65232;48.358;2.122;2023-12-14T02:14:04;100663.00;;;8.22;100.00